createdAt,value
2023-03-26T00:03:55.309Z,99364.93
2023-03-26T00:08:58.571Z,99362.23
2023-03-26T00:14:02.997Z,99365.39
2023-03-26T00:19:06.158Z,99352.83
2023-03-26T00:24:15.578Z,99350.35
2023-03-26T00:29:18.744Z,99346.16
2023-03-26T00:34:23.056Z,99338.32
2023-03-26T00:39:26.442Z,99337.20
2023-03-26T00:44:31.055Z,99333.44
2023-03-26T00:49:34.013Z,99331.16
2023-03-26T00:54:37.009Z,99328.03
2023-03-26T00:59:40.533Z,99327.75
2023-03-26T01:04:59.420Z,99327.97
2023-03-26T01:10:02.309Z,99331.95
2023-03-26T01:15:08.296Z,99330.79
2023-03-26T01:20:20.258Z,99327.10
2023-03-26T01:25:23.219Z,99326.17
2023-03-26T01:30:41.890Z,99318.36
2023-03-26T01:36:00.005Z,99313.89
2023-03-26T01:41:18.748Z,99307.23
2023-03-26T01:46:23.051Z,99297.75
2023-03-26T01:51:39.795Z,99296.73
2023-03-26T01:57:03.320Z,99294.51
2023-03-26T02:02:10.308Z,99291.91
2023-03-26T02:07:38.045Z,99285.95
2023-03-26T02:12:42.603Z,99279.95
2023-03-26T02:17:47.189Z,99276.58
2023-03-26T02:22:50.185Z,99277.20
2023-03-26T02:27:53.163Z,99272.05
2023-03-26T02:32:59.359Z,99269.35
2023-03-26T02:38:02.461Z,99266.44
2023-03-26T02:43:05.388Z,99266.45
2023-03-26T02:48:08.314Z,99269.17
2023-03-26T02:53:12.036Z,99268.55
2023-03-26T02:58:17.935Z,99272.81
2023-03-26T03:03:25.775Z,99275.14
2023-03-26T03:08:29.609Z,99267.91
2023-03-26T03:13:32.555Z,99274.86
2023-03-26T03:18:35.781Z,99276.86
2023-03-26T03:23:38.594Z,99280.23
2023-03-26T03:28:41.988Z,99287.34
2023-03-26T03:33:46.423Z,99286.39
2023-03-26T03:38:50.007Z,99282.31
2023-03-26T03:43:52.907Z,99280.73
2023-03-26T03:48:56.102Z,99281.20
2023-03-26T03:53:58.970Z,99288.40
2023-03-26T03:59:03.520Z,99285.54
2023-03-26T04:04:06.453Z,99289.19
2023-03-26T04:09:12.096Z,99288.14
2023-03-26T04:14:14.951Z,99283.55
2023-03-26T04:19:17.826Z,99287.23
2023-03-26T04:24:22.492Z,99283.16
2023-03-26T04:29:27.992Z,99278.27
2023-03-26T04:34:31.063Z,99273.41
2023-03-26T04:39:34.011Z,99273.98
2023-03-26T04:44:36.858Z,99271.06
2023-03-26T04:49:39.928Z,99271.13
2023-03-26T04:54:44.308Z,99271.19
2023-03-26T04:59:47.447Z,99273.98
2023-03-26T05:04:50.884Z,99276.09
2023-03-26T05:09:54.143Z,99273.61
2023-03-26T05:14:57.004Z,99277.91
2023-03-26T05:19:59.838Z,99276.95
2023-03-26T05:25:06.353Z,99271.45
2023-03-26T05:30:14.453Z,99268.87
2023-03-26T05:35:17.953Z,99261.59
2023-03-26T05:40:22.025Z,99261.88
2023-03-26T05:45:25.620Z,99262.16
2023-03-26T05:50:28.499Z,99261.15
2023-03-26T05:55:33.501Z,99261.81
2023-03-26T06:00:38.963Z,99262.91
2023-03-26T06:05:43.011Z,99263.52
2023-03-26T06:10:46.007Z,99265.25
2023-03-26T06:15:48.889Z,99263.69
2023-03-26T06:20:52.898Z,99265.35
2023-03-26T06:25:56.268Z,99267.20
2023-03-26T06:31:01.130Z,99269.75
2023-03-26T06:36:04.831Z,99273.84
2023-03-26T06:41:07.809Z,99280.09
2023-03-26T06:46:13.361Z,99285.04
2023-03-26T06:51:16.730Z,99279.21
2023-03-26T06:56:19.677Z,99281.30
2023-03-26T07:01:23.066Z,99284.15
2023-03-26T07:06:26.615Z,99279.36
2023-03-26T07:11:29.693Z,99278.57
2023-03-26T07:16:32.833Z,99277.41
2023-03-26T07:21:36.192Z,99273.60
2023-03-26T07:26:57.219Z,99276.36
2023-03-26T07:32:25.767Z,99278.65
2023-03-26T07:37:47.968Z,99268.96
2023-03-26T07:43:11.782Z,99269.84
2023-03-26T07:48:29.716Z,99265.47
2023-03-26T07:53:33.106Z,99267.93
2023-03-26T07:58:45.349Z,99261.51
2023-03-26T08:04:24.056Z,99259.09
2023-03-26T08:10:01.902Z,99257.08
2023-03-26T08:15:49.988Z,99256.71
2023-03-26T08:21:08.066Z,99251.56
2023-03-26T08:26:22.227Z,99253.67
2023-03-26T08:31:51.959Z,99251.27
2023-03-26T08:36:55.030Z,99244.19
2023-03-26T08:42:24.049Z,99245.57
2023-03-26T08:48:03.188Z,99245.95
2023-03-26T08:53:33.041Z,99250.10
2023-03-26T08:59:14.413Z,99240.36
2023-03-26T09:04:40.443Z,99237.17
2023-03-26T09:10:14.501Z,99230.75
2023-03-26T09:16:01.355Z,99228.93
2023-03-26T09:21:44.544Z,99230.27
2023-03-26T09:27:18.907Z,99237.79
2023-03-26T09:32:59.595Z,99238.84
2023-03-26T09:38:14.895Z,99231.95
2023-03-26T09:43:58.899Z,99227.86
2023-03-26T09:49:35.400Z,99224.86
2023-03-26T09:54:57.092Z,99220.85
2023-03-26T10:00:32.026Z,99219.66
2023-03-26T10:06:06.928Z,99218.05
2023-03-26T10:11:33.730Z,99222.55
2023-03-26T10:17:03.252Z,99210.09
2023-03-26T10:22:32.067Z,99201.98
2023-03-26T10:28:24.865Z,99198.61
2023-03-26T10:34:28.747Z,99209.34
2023-03-26T10:40:14.525Z,99209.64
2023-03-26T10:45:41.770Z,99199.76
2023-03-26T10:51:29.200Z,99199.35
2023-03-26T10:56:45.420Z,99198.00
2023-03-26T11:02:06.803Z,99226.38
2023-03-26T11:07:22.474Z,99222.40
2023-03-26T11:12:52.856Z,99209.24
2023-03-26T11:18:18.943Z,99200.07
2023-03-26T11:23:36.088Z,99193.96
2023-03-26T11:29:30.956Z,99195.39
2023-03-26T11:34:42.019Z,99201.91
2023-03-26T11:39:50.954Z,99194.90
2023-03-26T11:45:00.813Z,99199.23
2023-03-26T11:50:05.187Z,99196.42
2023-03-26T11:55:12.640Z,99199.52
2023-03-26T12:00:19.441Z,99195.81
2023-03-26T12:05:26.631Z,99190.30
2023-03-26T12:10:35.070Z,99184.27
2023-03-26T12:15:42.912Z,99179.15
2023-03-26T12:20:45.847Z,99178.28
2023-03-26T12:25:48.776Z,99180.77
2023-03-26T12:31:02.924Z,99185.77
2023-03-26T12:36:30.405Z,99197.08
2023-03-26T12:44:42.183Z,99196.21
2023-03-26T12:47:55.194Z,99187.44
2023-03-26T12:52:54.015Z,99186.45
2023-03-26T12:58:21.906Z,99177.88
2023-03-26T13:03:46.963Z,99173.88
2023-03-26T13:09:12.194Z,99178.91
2023-03-26T13:15:27.487Z,99182.41
2023-03-26T13:21:18.762Z,99205.09
2023-03-26T13:26:46.765Z,99205.31
2023-03-26T13:32:17.669Z,99189.58
2023-03-26T13:38:08.293Z,99186.77
2023-03-26T13:43:39.861Z,99191.96
2023-03-26T13:49:01.964Z,99189.69
2023-03-26T13:54:37.034Z,99182.59
2023-03-26T13:59:52.197Z,99182.36
2023-03-26T14:05:01.364Z,99185.27
2023-03-26T14:10:07.445Z,99198.61
2023-03-26T14:15:32.651Z,99194.02
2023-03-26T14:21:26.160Z,99187.42
2023-03-26T14:27:18.588Z,99183.13
2023-03-26T14:32:47.167Z,99183.17
2023-03-26T14:38:22.878Z,99170.83
2023-03-26T14:44:06.724Z,99175.56
2023-03-26T14:49:30.778Z,99174.97
2023-03-26T14:54:37.860Z,99182.39
2023-03-26T15:00:21.267Z,99186.91
2023-03-26T15:06:03.076Z,99182.19
2023-03-26T15:11:43.361Z,99182.45
2023-03-26T15:17:12.853Z,99180.98
2023-03-26T15:22:59.183Z,99183.50
2023-03-26T16:27:40.163Z,99221.64
2023-03-26T16:39:48.240Z,99217.50
2023-03-26T16:45:20.482Z,99221.52
2023-03-26T17:06:21.539Z,99236.52
2023-03-26T17:20:17.327Z,99246.89
2023-03-26T17:25:36.789Z,99244.78
2023-03-26T17:30:58.295Z,99249.23
2023-03-26T17:36:21.404Z,99253.47
2023-03-26T17:42:13.099Z,99259.11
2023-03-26T17:47:34.180Z,99257.23
2023-03-26T17:52:57.477Z,99251.86
2023-03-26T17:58:50.736Z,99246.02
2023-03-26T18:20:50.205Z,99256.04
2023-03-26T18:26:18.737Z,99263.23
2023-03-26T18:31:26.387Z,99260.33
2023-03-26T18:54:55.313Z,99258.81
2023-03-26T19:00:47.413Z,99247.84
2023-03-26T19:25:03.020Z,99216.86
2023-03-26T19:30:07.672Z,99211.47
2023-03-26T19:35:21.342Z,99204.98
2023-03-26T19:40:31.981Z,99205.52
2023-03-26T19:45:34.805Z,99202.15
2023-03-26T19:50:42.213Z,99198.46
2023-03-26T19:56:16.079Z,99190.27
2023-03-26T20:01:27.482Z,99189.06
2023-03-26T20:06:42.528Z,99188.20
2023-03-26T20:11:47.238Z,99179.63
2023-03-26T20:26:54.796Z,99170.95
2023-03-26T20:47:27.617Z,99163.68
2023-03-26T21:00:20.194Z,99170.55
2023-03-26T21:05:25.905Z,99174.81
2023-03-26T21:17:39.378Z,99174.23
2023-03-26T21:23:26.393Z,99175.13
2023-03-26T21:47:55.782Z,99169.25
2023-03-26T22:02:10.534Z,99166.27
2023-03-26T22:08:27.745Z,99152.90
2023-03-26T22:20:12.736Z,99151.77
2023-03-26T22:39:33.927Z,99152.80
2023-03-26T22:44:37.275Z,99152.23
2023-03-26T22:49:55.578Z,99153.11
2023-03-26T23:01:10.771Z,99151.27
2023-03-26T23:06:13.770Z,99150.62
2023-03-26T23:11:18.751Z,99145.77
2023-03-26T23:16:21.958Z,99144.21
2023-03-26T23:21:25.723Z,99138.96
2023-03-26T23:26:35.006Z,99134.94
2023-03-26T23:31:42.491Z,99136.31
2023-03-26T23:36:45.532Z,99138.84
2023-03-26T23:41:48.500Z,99145.27
2023-03-26T23:46:58.043Z,99149.33
2023-03-26T23:52:01.031Z,99148.67
2023-03-26T23:57:06.725Z,99154.04
